Time;durP1;ratioP1;P1;durP2;ratioP2;P2;SDS_P1;SDS_P2;PMS_P1;PMS_P2;Temp;Humidity;BMP_temperature;BMP_pressure;BME280_temperature;BME280_humidity;BME280_pressure;Samples;Min_cycle;Max_cycle;Signal;HPM_P1;HPM_P2
2021/11/27 00:01:27;;;;;;;2.10;1.90;;;5.00;99.90;;;;;;4945751;29;20228;-87
2021/11/27 00:03:55;;;;;;;2.38;1.80;;;4.90;99.90;;;;;;4928118;29;20197;-86
2021/11/27 00:06:25;;;;;;;2.83;1.87;;;5.00;99.90;;;;;;4953830;28;20676;-88
2021/11/27 00:08:53;;;;;;;2.58;1.70;;;5.00;99.90;;;;;;4951671;28;20479;-85
2021/11/27 00:11:22;;;;;;;2.28;1.92;;;5.00;99.90;;;;;;4938682;29;20283;-86
2021/11/27 00:13:52;;;;;;;4.15;1.83;;;4.90;99.90;;;;;;4945057;29;20193;-87
2021/11/27 00:16:21;;;;;;;2.10;1.60;;;5.00;99.90;;;;;;4943764;29;20517;-87
2021/11/27 00:18:50;;;;;;;1.90;1.70;;;5.10;99.90;;;;;;4946484;29;20331;-87
2021/11/27 00:21:20;;;;;;;2.08;1.63;;;5.20;99.90;;;;;;4926356;29;20249;-87
2021/11/27 00:23:51;;;;;;;2.60;1.63;;;5.20;99.90;;;;;;4924528;29;20701;-85
2021/11/27 00:26:20;;;;;;;2.77;2.07;;;5.10;99.90;;;;;;4944240;29;20479;-85
2021/11/27 00:28:49;;;;;;;1.67;1.50;;;5.10;99.90;;;;;;4929156;29;20515;-86
2021/11/27 00:31:23;;;;;;;1.60;1.50;;;4.90;99.90;;;;;;4945188;29;20204;-84
2021/11/27 00:33:52;;;;;;;1.93;1.60;;;5.10;99.90;;;;;;4946384;29;20483;-85
2021/11/27 00:36:21;;;;;;;3.73;1.73;;;5.10;99.90;;;;;;4934497;29;20460;-85
2021/11/27 00:38:51;;;;;;;3.23;1.73;;;5.20;99.90;;;;;;4940739;28;20516;-85
2021/11/27 00:41:20;;;;;;;5.90;2.65;;;5.20;99.90;;;;;;4940067;28;20507;-86
2021/11/27 00:43:49;;;;;;;5.30;1.98;;;5.20;99.90;;;;;;4950554;28;20298;-87
2021/11/27 00:46:19;;;;;;;3.00;1.93;;;5.00;99.90;;;;;;4941382;28;20216;-86
2021/11/27 00:48:47;;;;;;;2.47;1.80;;;4.90;99.90;;;;;;4926548;29;20492;-87
2021/11/27 00:51:20;;;;;;;4.50;2.47;;;5.00;99.90;;;;;;4939726;29;20519;-88
2021/11/27 00:53:49;;;;;;;2.07;1.87;;;5.00;99.90;;;;;;4942435;28;20560;-87
2021/11/27 00:56:18;;;;;;;2.60;1.83;;;5.00;99.90;;;;;;4943445;28;20492;-87
2021/11/27 00:58:48;;;;;;;2.50;1.67;;;5.10;99.90;;;;;;4932357;29;20854;-87
2021/11/27 01:01:20;;;;;;;4.37;1.90;;;5.20;99.90;;;;;;4942873;29;21359;-86
2021/11/27 01:03:50;;;;;;;1.93;1.40;;;5.50;99.90;;;;;;4935758;28;20497;-86
2021/11/27 01:06:21;;;;;;;1.80;1.70;;;5.10;99.90;;;;;;4936341;28;20708;-86
2021/11/27 01:08:51;;;;;;;3.78;2.00;;;5.10;99.90;;;;;;4936571;28;20914;-88
2021/11/27 01:11:23;;;;;;;3.75;2.53;;;5.30;99.90;;;;;;4931146;29;20205;-87
2021/11/27 01:13:54;;;;;;;2.53;2.05;;;5.10;99.90;;;;;;4954082;28;20715;-87
2021/11/27 01:16:26;;;;;;;2.15;1.80;;;5.10;99.90;;;;;;4942809;29;20208;-88
2021/11/27 01:18:55;;;;;;;2.35;1.70;;;5.20;99.90;;;;;;4940013;29;20727;-87
2021/11/27 01:21:26;;;;;;;5.57;2.50;;;5.20;99.90;;;;;;4949532;28;20256;-86
2021/11/27 01:23:56;;;;;;;2.40;1.77;;;5.10;99.90;;;;;;4955144;28;20460;-87
2021/11/27 01:26:25;;;;;;;2.63;1.97;;;5.20;99.90;;;;;;4942416;29;20451;-88
2021/11/27 01:28:53;;;;;;;2.43;1.60;;;5.20;99.90;;;;;;4941581;29;21003;-87
2021/11/27 01:31:23;;;;;;;2.10;1.73;;;5.20;99.90;;;;;;4943335;28;20535;-86
2021/11/27 01:33:52;;;;;;;2.33;1.77;;;5.00;99.90;;;;;;4927193;29;20452;-87
2021/11/27 01:36:20;;;;;;;3.03;2.05;;;5.00;99.90;;;;;;4913308;28;20500;-86
2021/11/27 01:38:49;;;;;;;3.50;2.30;;;5.30;99.90;;;;;;4940306;29;20260;-87
2021/11/27 01:41:17;;;;;;;1.70;1.60;;;4.70;99.90;;;;;;4943866;28;20254;-86
2021/11/27 01:43:46;;;;;;;3.10;2.40;;;4.60;99.90;;;;;;4944689;28;20251;-88
2021/11/27 01:46:15;;;;;;;2.08;1.40;;;4.80;99.90;;;;;;4925782;29;20201;-89
2021/11/27 01:48:45;;;;;;;3.25;1.75;;;4.60;99.90;;;;;;4939833;29;20659;-89
2021/11/27 01:51:18;;;;;;;2.65;1.63;;;4.60;99.90;;;;;;4943367;29;20213;-86
2021/11/27 01:53:50;;;;;;;3.80;1.90;;;4.60;99.90;;;;;;4946292;28;20195;-86
2021/11/27 01:56:22;;;;;;;2.17;1.58;;;4.80;99.90;;;;;;4942814;29;20205;-86
2021/11/27 01:58:51;;;;;;;2.60;2.33;;;5.00;99.90;;;;;;4939535;29;20713;-86
2021/11/27 02:01:21;;;;;;;2.00;1.73;;;5.00;99.90;;;;;;4940002;29;20515;-87
2021/11/27 02:03:51;;;;;;;2.25;1.75;;;4.70;99.90;;;;;;4939914;29;20276;-87
2021/11/27 02:06:23;;;;;;;1.90;1.33;;;4.60;99.90;;;;;;4926433;29;20215;-87
2021/11/27 02:08:53;;;;;;;2.17;2.00;;;4.50;99.90;;;;;;4943427;28;20242;-87
2021/11/27 02:11:26;;;;;;;2.25;1.70;;;4.70;99.90;;;;;;4946344;29;20248;-87
2021/11/27 02:13:55;;;;;;;2.28;1.50;;;4.40;1.00;;;;;;4947441;29;20193;-86
2021/11/27 02:16:23;;;;;;;1.30;1.20;;;4.50;1.00;;;;;;4947454;29;20222;-86
2021/11/27 02:18:53;;;;;;;2.38;1.60;;;4.60;1.00;;;;;;4945129;28;20619;-90
2021/11/27 02:21:24;;;;;;;2.60;1.50;;;4.80;1.00;;;;;;4935352;29;20204;-88
2021/11/27 02:23:55;;;;;;;3.00;1.30;;;4.70;1.00;;;;;;4941642;28;20480;-86
2021/11/27 02:26:28;;;;;;;2.42;1.60;;;4.60;1.00;;;;;;4946466;29;20495;-86
2021/11/27 02:29:01;;;;;;;1.55;1.45;;;4.60;1.00;;;;;;4926112;29;20648;-88
2021/11/27 02:31:29;;;;;;;2.50;1.97;;;4.70;1.00;;;;;;4946390;29;20208;-88
2021/11/27 02:33:58;;;;;;;4.97;2.23;;;4.80;1.00;;;;;;4945976;29;20444;-87
2021/11/27 02:36:29;;;;;;;1.90;1.73;;;4.90;99.90;;;;;;4944379;28;20467;-88
2021/11/27 02:38:59;;;;;;;2.47;1.65;;;5.30;99.90;;;;;;4943557;29;20492;-89
2021/11/27 02:41:27;;;;;;;2.70;1.70;;;5.00;99.90;;;;;;4946954;29;20553;-87
2021/11/27 02:43:56;;;;;;;2.45;1.30;;;5.10;99.90;;;;;;4930479;28;20485;-89
2021/11/27 02:46:24;;;;;;;1.93;1.50;;;5.10;99.90;;;;;;4929138;29;20196;-89
2021/11/27 02:48:53;;;;;;;7.35;1.90;;;5.10;99.90;;;;;;4945744;29;20492;-88
2021/11/27 02:51:21;;;;;;;3.00;1.67;;;5.10;99.90;;;;;;4927530;28;20204;-88
2021/11/27 02:53:51;;;;;;;2.25;1.48;;;5.10;99.90;;;;;;4946022;28;20208;-88
2021/11/27 02:56:19;;;;;;;1.88;1.25;;;4.90;99.90;;;;;;4943549;28;20216;-86
2021/11/27 02:58:47;;;;;;;1.53;1.40;;;4.90;99.90;;;;;;4941896;29;20240;-88
2021/11/27 03:01:16;;;;;;;1.92;1.55;;;5.10;99.90;;;;;;4941917;29;20476;-88
2021/11/27 03:03:44;;;;;;;3.40;1.92;;;5.00;99.90;;;;;;4940986;28;20220;-86
2021/11/27 03:06:13;;;;;;;1.67;1.33;;;5.00;99.90;;;;;;4947159;28;20200;-88
2021/11/27 03:08:42;;;;;;;2.50;1.50;;;5.10;99.90;;;;;;4948847;28;20538;-88
2021/11/27 03:11:12;;;;;;;1.27;1.20;;;5.20;99.90;;;;;;4946804;28;20216;-88
2021/11/27 03:13:42;;;;;;;4.65;2.53;;;5.20;99.90;;;;;;4936584;28;20666;-87
2021/11/27 03:16:10;;;;;;;2.00;1.90;;;5.10;99.90;;;;;;4941094;28;20208;-88
2021/11/27 03:18:38;;;;;;;3.00;1.65;;;5.20;99.90;;;;;;4945258;28;21038;-87
2021/11/27 03:21:06;;;;;;;3.97;1.43;;;5.40;99.90;;;;;;4943054;28;20754;-86
2021/11/27 03:23:36;;;;;;;2.97;1.50;;;5.20;99.90;;;;;;4944604;28;20543;-88
2021/11/27 03:26:04;;;;;;;1.30;1.20;;;5.30;99.90;;;;;;4937783;28;20457;-87
2021/11/27 03:28:34;;;;;;;2.03;1.20;;;5.40;99.90;;;;;;4942128;28;20502;-90
2021/11/27 03:31:03;;;;;;;2.63;1.85;;;5.30;99.90;;;;;;4938971;28;20372;-87
2021/11/27 03:33:33;;;;;;;1.73;1.27;;;5.20;99.90;;;;;;4943138;28;20212;-88
2021/11/27 03:36:01;;;;;;;2.33;1.23;;;5.50;99.90;;;;;;4943512;28;20824;-87
2021/11/27 03:38:29;;;;;;;2.80;1.70;;;5.50;99.90;;;;;;4946589;28;20515;-89
2021/11/27 03:40:58;;;;;;;1.83;1.20;;;5.50;99.90;;;;;;4940103;28;20448;-88
2021/11/27 03:43:27;;;;;;;2.97;1.63;;;5.60;99.90;;;;;;4942548;28;20601;-88
2021/11/27 03:45:57;;;;;;;4.13;1.57;;;5.30;99.90;;;;;;4919177;28;21003;-89
2021/11/27 03:48:27;;;;;;;2.00;1.20;;;5.20;99.90;;;;;;4938158;28;20486;-86
2021/11/27 03:50:57;;;;;;;2.27;1.40;;;5.30;99.90;;;;;;4944945;28;20527;-87
2021/11/27 03:53:29;;;;;;;1.70;1.58;;;5.20;99.90;;;;;;4942427;28;20454;-86
2021/11/27 03:56:00;;;;;;;2.00;1.80;;;5.10;1.00;;;;;;4949490;28;20288;-87
2021/11/27 03:58:28;;;;;;;3.80;1.60;;;5.10;1.00;;;;;;4943692;28;20540;-88
2021/11/27 04:00:59;;;;;;;2.58;1.40;;;5.20;1.00;;;;;;4918446;29;20212;-88
2021/11/27 04:03:29;;;;;;;1.63;1.40;;;5.30;99.90;;;;;;4918424;29;20852;-87
2021/11/27 04:06:00;;;;;;;1.50;1.40;;;5.40;99.90;;;;;;4942611;28;20452;-88
2021/11/27 04:08:29;;;;;;;1.37;1.10;;;5.40;99.90;;;;;;4917323;29;20487;-87
2021/11/27 04:10:58;;;;;;;1.50;1.10;;;5.30;99.90;;;;;;4925544;28;20551;-85
2021/11/27 04:13:28;;;;;;;1.17;1.08;;;5.50;99.90;;;;;;4921049;28;20452;-86
2021/11/27 04:15:58;;;;;;;1.80;1.10;;;5.20;1.00;;;;;;4959170;28;20204;-86
2021/11/27 04:18:26;;;;;;;3.30;1.48;;;5.30;1.00;;;;;;4953081;28;20486;-88
2021/11/27 04:20:55;;;;;;;2.70;1.75;;;5.20;1.00;;;;;;4923497;28;20217;-89
2021/11/27 04:23:24;;;;;;;1.48;0.77;;;5.30;1.00;;;;;;4942293;29;20252;-87
2021/11/27 04:25:53;;;;;;;2.10;0.90;;;5.00;1.00;;;;;;4944433;29;20275;-86
2021/11/27 04:28:22;;;;;;;2.65;0.90;;;5.00;1.00;;;;;;4920906;29;20228;-89
2021/11/27 04:30:50;;;;;;;1.05;0.80;;;5.10;1.00;;;;;;4945808;28;20212;-86
2021/11/27 04:33:20;;;;;;;2.25;1.33;;;5.10;1.00;;;;;;4952600;28;20288;-88
2021/11/27 04:35:48;;;;;;;1.90;1.02;;;5.20;1.00;;;;;;4940191;29;20200;-88
2021/11/27 04:38:18;;;;;;;1.15;0.98;;;5.20;1.00;;;;;;4940540;28;20237;-87
2021/11/27 04:40:46;;;;;;;1.35;1.00;;;5.30;1.00;;;;;;4943971;29;20720;-86
2021/11/27 04:43:15;;;;;;;1.57;1.00;;;5.30;1.00;;;;;;4946191;28;20196;-88
2021/11/27 04:45:43;;;;;;;1.57;0.80;;;5.30;1.00;;;;;;4944653;29;20486;-86
2021/11/27 04:48:12;;;;;;;1.23;0.70;;;5.40;1.00;;;;;;4944493;29;20479;-88
2021/11/27 04:50:42;;;;;;;1.08;0.82;;;5.20;1.00;;;;;;4944400;29;20474;-88
2021/11/27 04:53:11;;;;;;;0.93;0.90;;;5.00;1.00;;;;;;4947475;28;20239;-86
2021/11/27 04:55:39;;;;;;;1.45;1.00;;;4.90;39.00;;;;;;4943629;29;20297;-86
2021/11/27 04:58:08;;;;;;;0.98;0.95;;;4.70;99.90;;;;;;4943257;29;20319;-87
2021/11/27 05:00:40;;;;;;;0.80;0.63;;;4.70;99.90;;;;;;4942728;28;20200;-87
2021/11/27 05:03:09;;;;;;;0.68;0.68;;;4.90;99.90;;;;;;4936571;28;20207;-84
2021/11/27 05:05:38;;;;;;;1.98;0.80;;;4.70;99.90;;;;;;4946676;28;20263;-86
2021/11/27 05:08:08;;;;;;;0.50;0.50;;;4.80;99.90;;;;;;4944628;28;20264;-86
2021/11/27 05:10:36;;;;;;;0.70;0.70;;;4.70;99.90;;;;;;4944358;29;20429;-86
2021/11/27 05:13:05;;;;;;;1.55;0.70;;;4.90;99.90;;;;;;4942197;29;20208;-86
2021/11/27 05:15:33;;;;;;;0.75;0.65;;;4.80;99.90;;;;;;4941792;28;20219;-88
2021/11/27 05:18:02;;;;;;;0.70;0.70;;;5.00;99.90;;;;;;4943020;28;20235;-84
2021/11/27 05:20:30;;;;;;;0.70;0.70;;;5.00;99.90;;;;;;4933117;28;20492;-87
2021/11/27 05:22:59;;;;;;;1.15;0.70;;;4.90;99.90;;;;;;4928208;29;21079;-86
2021/11/27 05:25:28;;;;;;;1.90;0.90;;;5.00;99.90;;;;;;4940612;28;20224;-87
2021/11/27 05:27:57;;;;;;;2.33;0.77;;;5.00;99.90;;;;;;4931770;28;20514;-86
2021/11/27 05:30:27;;;;;;;1.90;0.63;;;4.90;99.90;;;;;;4943369;29;20527;-88
2021/11/27 05:33:09;;;;;;;0.65;0.60;;;5.00;99.90;;;;;;4943241;29;20902;-87
2021/11/27 05:35:38;;;;;;;0.70;0.70;;;5.10;99.90;;;;;;4923916;29;20304;-89
2021/11/27 05:38:07;;;;;;;0.60;0.60;;;5.10;99.90;;;;;;4944648;28;20772;-89
2021/11/27 05:40:38;;;;;;;0.73;0.70;;;5.10;99.90;;;;;;4944304;29;20972;-88
2021/11/27 05:43:06;;;;;;;0.70;0.70;;;5.30;99.90;;;;;;4944947;28;20488;-88
2021/11/27 05:45:34;;;;;;;1.00;0.90;;;4.90;99.90;;;;;;4942988;29;20212;-87
2021/11/27 05:48:04;;;;;;;1.40;1.07;;;4.90;99.90;;;;;;4941465;29;20216;-89
2021/11/27 05:50:34;;;;;;;1.00;0.80;;;4.90;99.90;;;;;;4940133;29;20993;-88
2021/11/27 05:53:02;;;;;;;0.70;0.70;;;4.90;99.90;;;;;;4947202;29;20215;-89
2021/11/27 05:55:31;;;;;;;1.80;0.90;;;4.90;99.90;;;;;;4940062;29;20468;-87
2021/11/27 05:58:01;;;;;;;1.50;1.07;;;5.10;99.90;;;;;;4946295;29;20243;-88
2021/11/27 06:00:30;;;;;;;0.85;0.70;;;4.90;99.90;;;;;;4947480;28;21001;-89
2021/11/27 06:02:58;;;;;;;1.17;1.00;;;5.10;99.90;;;;;;4946950;29;20770;-89
2021/11/27 06:05:28;;;;;;;0.97;0.97;;;5.20;99.90;;;;;;4949065;28;20231;-87
2021/11/27 06:07:58;;;;;;;1.63;1.30;;;4.90;99.90;;;;;;4929164;29;20467;-87
2021/11/27 06:10:26;;;;;;;0.70;0.60;;;5.10;99.90;;;;;;4928266;29;21031;-86
2021/11/27 06:12:54;;;;;;;0.90;0.80;;;5.00;99.90;;;;;;4946974;29;20228;-87
2021/11/27 06:15:25;;;;;;;0.70;0.70;;;5.10;99.90;;;;;;4946727;28;20559;-85
2021/11/27 06:17:54;;;;;;;2.85;1.08;;;4.90;99.90;;;;;;4947099;29;20228;-85
2021/11/27 06:20:23;;;;;;;1.15;0.80;;;5.00;99.90;;;;;;4944301;29;20236;-88
2021/11/27 06:22:51;;;;;;;1.13;1.00;;;5.10;99.90;;;;;;4945140;28;20470;-89
2021/11/27 06:25:24;;;;;;;0.90;0.85;;;5.10;99.90;;;;;;4948747;28;20220;-85
2021/11/27 06:27:53;;;;;;;1.00;0.90;;;5.30;99.90;;;;;;4948665;28;20224;-85
2021/11/27 06:30:22;;;;;;;1.33;1.20;;;5.70;15.50;;;;;;4950167;28;20834;-88
2021/11/27 06:32:51;;;;;;;1.27;1.17;;;5.50;1.00;;;;;;4949643;28;20452;-85
2021/11/27 06:35:20;;;;;;;2.30;1.20;;;5.50;1.00;;;;;;4949631;28;20456;-86
2021/11/27 06:37:49;;;;;;;1.23;0.80;;;5.40;1.00;;;;;;4944308;29;20487;-84
2021/11/27 06:40:17;;;;;;;1.33;0.90;;;5.30;18.60;;;;;;4943482;29;20460;-85
2021/11/27 06:42:45;;;;;;;0.73;0.73;;;5.50;66.60;;;;;;4930922;29;20460;-85
2021/11/27 06:45:13;;;;;;;1.03;0.80;;;5.10;99.90;;;;;;4947704;28;20603;-84
2021/11/27 06:47:42;;;;;;;0.77;0.77;;;5.00;99.90;;;;;;4933080;28;20452;-88
2021/11/27 06:50:13;;;;;;;1.80;1.13;;;5.10;99.90;;;;;;4944173;28;21653;-89
2021/11/27 06:52:43;;;;;;;1.58;0.90;;;5.20;99.90;;;;;;4946940;28;20215;-87
2021/11/27 06:55:11;;;;;;;1.20;1.10;;;5.20;99.90;;;;;;4952765;28;20281;-88
2021/11/27 06:57:39;;;;;;;1.17;0.90;;;5.10;99.90;;;;;;4958621;28;20469;-87
2021/11/27 07:00:09;;;;;;;1.17;1.07;;;5.10;99.90;;;;;;4948730;29;20824;-88
2021/11/27 07:02:38;;;;;;;1.20;0.80;;;5.20;99.90;;;;;;4949213;28;20924;-89
2021/11/27 07:05:07;;;;;;;1.10;1.00;;;5.20;99.90;;;;;;4949996;28;20476;-88
2021/11/27 07:07:36;;;;;;;0.75;0.75;;;5.20;91.50;;;;;;4939539;29;20208;-88
2021/11/27 07:10:06;;;;;;;0.82;0.82;;;5.20;99.90;;;;;;4948975;29;20219;-87
2021/11/27 07:12:38;;;;;;;0.90;0.90;;;5.40;1.00;;;;;;4945331;29;20636;-89
2021/11/27 07:15:08;;;;;;;0.85;0.80;;;5.50;1.00;;;;;;4949263;29;20312;-88
2021/11/27 07:17:37;;;;;;;1.00;0.90;;;5.40;1.00;;;;;;4947117;28;20573;-89
2021/11/27 07:20:08;;;;;;;1.05;0.98;;;5.30;1.00;;;;;;4928260;29;20205;-90
2021/11/27 07:22:38;;;;;;;0.98;0.98;;;5.20;1.00;;;;;;4950069;28;20268;-88
2021/11/27 07:25:07;;;;;;;1.08;0.90;;;5.20;99.90;;;;;;4961569;28;20216;-89
2021/11/27 07:27:36;;;;;;;1.02;0.90;;;4.90;99.90;;;;;;4949845;29;20284;-89
2021/11/27 07:30:06;;;;;;;1.50;1.00;;;4.80;1.00;;;;;;4948021;29;20669;-88
2021/11/27 07:32:35;;;;;;;2.00;1.37;;;4.90;1.00;;;;;;4936120;29;20208;-86
2021/11/27 07:35:04;;;;;;;0.98;0.90;;;4.80;1.00;;;;;;4948913;28;20472;-88
2021/11/27 07:37:33;;;;;;;2.33;1.33;;;4.80;29.30;;;;;;4926518;28;20299;-88
2021/11/27 07:40:03;;;;;;;1.00;0.77;;;4.80;1.00;;;;;;4947686;28;20245;-88
2021/11/27 07:42:31;;;;;;;0.90;0.80;;;4.90;1.00;;;;;;4931133;28;20550;-89
2021/11/27 07:45:00;;;;;;;1.02;0.70;;;4.90;1.00;;;;;;4950041;28;20201;-88
2021/11/27 07:47:28;;;;;;;1.17;0.70;;;5.20;1.00;;;;;;4947725;28;20258;-87
2021/11/27 07:49:59;;;;;;;1.42;1.10;;;5.00;10.10;;;;;;4951477;28;20459;-87
2021/11/27 07:52:28;;;;;;;1.10;0.88;;;5.00;55.90;;;;;;4932621;29;20192;-88
2021/11/27 07:54:57;;;;;;;1.20;1.00;;;5.00;1.00;;;;;;4927264;29;20467;-87
2021/11/27 07:57:27;;;;;;;0.80;0.80;;;5.10;1.00;;;;;;4946351;28;20213;-88
2021/11/27 07:59:55;;;;;;;1.57;1.20;;;5.10;1.00;;;;;;4940089;28;20841;-88
2021/11/27 08:02:23;;;;;;;1.13;0.80;;;5.20;1.00;;;;;;4940629;29;20940;-87
2021/11/27 08:04:52;;;;;;;2.00;1.13;;;5.30;99.90;;;;;;4938914;29;20208;-87
2021/11/27 08:07:20;;;;;;;2.13;0.80;;;5.40;99.90;;;;;;4943567;28;20578;-87
2021/11/27 08:09:48;;;;;;;1.70;1.05;;;5.30;99.90;;;;;;4945215;29;21050;-88
2021/11/27 08:12:17;;;;;;;1.27;0.80;;;5.40;99.90;;;;;;4943971;29;20546;-87
2021/11/27 08:14:46;;;;;;;0.90;0.73;;;5.40;99.90;;;;;;4946860;28;20499;-88
2021/11/27 08:17:15;;;;;;;1.95;0.68;;;5.50;99.90;;;;;;4947618;28;20453;-88
2021/11/27 08:19:43;;;;;;;0.80;0.80;;;5.70;99.90;;;;;;4946778;28;20311;-88
2021/11/27 08:22:11;;;;;;;1.53;1.10;;;5.50;99.90;;;;;;4939769;29;20667;-88
2021/11/27 08:24:39;;;;;;;1.63;1.00;;;5.50;99.90;;;;;;4927944;29;20460;-89
2021/11/27 08:27:08;;;;;;;1.17;1.00;;;5.60;99.90;;;;;;4945611;29;21015;-88
2021/11/27 08:29:36;;;;;;;1.47;1.00;;;5.90;99.90;;;;;;4944321;29;20487;-88
2021/11/27 08:32:06;;;;;;;0.87;0.80;;;5.60;99.90;;;;;;4944993;29;20460;-89
2021/11/27 08:34:34;;;;;;;0.73;0.70;;;5.80;59.50;;;;;;4944695;29;20468;-87
2021/11/27 08:37:03;;;;;;;0.87;0.87;;;5.80;86.60;;;;;;4925466;29;20471;-88
2021/11/27 08:39:31;;;;;;;1.00;1.00;;;5.80;1.00;;;;;;4947219;29;20492;-87
2021/11/27 08:41:59;;;;;;;1.37;0.77;;;6.00;1.00;;;;;;4930931;29;20479;-88
2021/11/27 08:44:28;;;;;;;0.60;0.60;;;5.80;1.00;;;;;;4948758;29;20467;-88
2021/11/27 08:46:56;;;;;;;0.73;0.63;;;5.70;1.00;;;;;;4948124;29;20496;-88
2021/11/27 08:49:26;;;;;;;0.80;0.70;;;5.50;99.90;;;;;;4948798;29;20571;-88
2021/11/27 08:51:54;;;;;;;2.43;1.00;;;5.60;89.70;;;;;;4948556;29;20480;-88
2021/11/27 08:54:22;;;;;;;0.70;0.70;;;5.60;99.90;;;;;;4948746;29;20460;-87
2021/11/27 08:56:51;;;;;;;1.00;0.87;;;5.80;95.90;;;;;;4942321;29;20464;-88
2021/11/27 08:59:19;;;;;;;1.13;0.90;;;5.90;10.40;;;;;;4941766;29;20486;-87
2021/11/27 09:01:47;;;;;;;0.90;0.80;;;6.00;1.00;;;;;;4948073;29;20491;-88
2021/11/27 09:04:16;;;;;;;1.37;0.80;;;5.90;1.00;;;;;;4948637;29;20548;-88
2021/11/27 09:06:46;;;;;;;1.17;0.70;;;6.00;1.00;;;;;;4948622;29;20472;-88
2021/11/27 09:09:14;;;;;;;0.80;0.70;;;6.20;1.00;;;;;;4948444;29;20488;-88
2021/11/27 09:11:43;;;;;;;0.60;0.60;;;6.00;1.00;;;;;;4948043;29;20460;-87
2021/11/27 09:14:11;;;;;;;1.37;0.70;;;6.20;1.00;;;;;;4947567;29;20490;-88
2021/11/27 09:16:39;;;;;;;1.03;1.00;;;6.20;1.00;;;;;;4948327;29;20944;-86
2021/11/27 09:19:08;;;;;;;0.70;0.70;;;6.20;1.00;;;;;;4931685;29;20504;-87
2021/11/27 09:21:37;;;;;;;0.80;0.70;;;6.10;1.00;;;;;;4948235;29;20452;-88
2021/11/27 09:24:07;;;;;;;1.20;1.03;;;6.20;1.00;;;;;;4948644;29;20460;-88
2021/11/27 09:26:37;;;;;;;0.70;0.70;;;6.20;1.00;;;;;;4948027;29;20468;-87
2021/11/27 09:29:07;;;;;;;0.60;0.60;;;6.20;1.00;;;;;;4943011;28;20561;-87
2021/11/27 09:31:39;;;;;;;1.40;0.63;;;6.00;2.80;;;;;;4948213;29;20463;-88
2021/11/27 09:34:07;;;;;;;0.77;0.67;;;6.00;46.60;;;;;;4947993;29;20460;-88
2021/11/27 09:36:36;;;;;;;0.57;0.50;;;5.90;99.90;;;;;;4942945;28;20451;-87
2021/11/27 09:39:09;;;;;;;0.60;0.60;;;5.80;99.90;;;;;;4948435;29;20495;-86
2021/11/27 09:41:40;;;;;;;0.60;0.60;;;5.90;99.90;;;;;;4931499;29;20479;-87
2021/11/27 09:44:10;;;;;;;0.83;0.70;;;5.90;99.90;;;;;;4948726;29;20456;-87
2021/11/27 09:46:40;;;;;;;1.27;0.53;;;6.20;99.80;;;;;;4931552;29;20576;-88
2021/11/27 09:49:11;;;;;;;0.70;0.60;;;6.20;99.90;;;;;;4957437;28;20820;-87
2021/11/27 09:51:40;;;;;;;0.60;0.60;;;6.40;1.00;;;;;;4954059;28;20468;-88
2021/11/27 09:54:12;;;;;;;0.57;0.57;;;6.60;1.00;;;;;;4948594;29;20475;-88
2021/11/27 09:56:40;;;;;;;1.00;0.60;;;6.60;1.00;;;;;;4947989;29;20463;-88
2021/11/27 09:59:09;;;;;;;1.90;0.73;;;6.60;1.00;;;;;;4948028;29;20477;-88
2021/11/27 10:01:39;;;;;;;0.70;0.60;;;6.80;1.00;;;;;;4930142;29;20468;-87
2021/11/27 10:04:08;;;;;;;0.80;0.60;;;6.90;1.00;;;;;;4947416;29;20470;-89
2021/11/27 10:06:39;;;;;;;0.90;0.80;;;7.10;1.00;;;;;;4935155;29;21021;-88
2021/11/27 10:09:10;;;;;;;0.80;0.80;;;7.20;1.00;;;;;;4948248;29;20465;-88
2021/11/27 10:11:41;;;;;;;1.70;0.87;;;7.20;1.00;;;;;;4948071;29;20457;-88
2021/11/27 10:14:10;;;;;;;0.70;0.70;;;7.30;99.90;;;;;;4946815;29;20471;-89
2021/11/27 10:17:07;;;;;;;2.00;0.80;;;7.40;1.00;;;;;;4947029;29;20464;-88
2021/11/27 10:19:52;;;;;;;0.70;0.70;;;7.60;99.90;;;;;;4947851;29;20496;-88
2021/11/27 10:22:23;;;;;;;1.33;0.67;;;7.70;99.90;;;;;;4946827;29;20461;-88
2021/11/27 10:24:52;;;;;;;1.30;0.87;;;7.60;99.90;;;;;;4948409;29;20533;-88
2021/11/27 10:27:28;;;;;;;0.70;0.70;;;7.60;99.90;;;;;;4947166;29;20483;-88
2021/11/27 10:30:02;;;;;;;0.80;0.70;;;7.50;99.90;;;;;;4936924;29;20477;-88
2021/11/27 10:32:34;;;;;;;2.13;0.93;;;7.60;99.90;;;;;;4950514;29;20543;-88
2021/11/27 10:35:04;;;;;;;0.73;0.73;;;7.60;99.90;;;;;;4950984;29;20544;-89
2021/11/27 10:37:34;;;;;;;1.13;0.80;;;7.50;99.90;;;;;;4944331;28;20464;-88
2021/11/27 10:40:06;;;;;;;0.63;0.63;;;7.40;99.90;;;;;;4952104;28;20466;-88
2021/11/27 10:42:37;;;;;;;2.00;0.90;;;7.20;99.90;;;;;;4950368;28;20475;-89
2021/11/27 10:45:18;;;;;;;1.77;0.70;;;7.10;99.90;;;;;;4937363;29;20472;-88
2021/11/27 10:47:48;;;;;;;0.80;0.80;;;7.10;99.90;;;;;;4942248;28;21040;-89
2021/11/27 10:50:21;;;;;;;1.73;0.80;;;7.10;99.90;;;;;;4935793;29;20474;-88
2021/11/27 10:52:51;;;;;;;1.17;0.80;;;7.10;99.90;;;;;;4948747;28;20473;-88
2021/11/27 10:55:22;;;;;;;0.80;0.80;;;7.20;99.90;;;;;;4952642;28;20461;-89
2021/11/27 10:57:55;;;;;;;1.30;0.80;;;7.00;99.90;;;;;;4956945;28;20479;-88
2021/11/27 11:00:33;;;;;;;0.97;0.80;;;7.10;99.90;;;;;;4927335;29;20480;-88
2021/11/27 11:03:02;;;;;;;0.87;0.87;;;7.00;99.90;;;;;;4912525;29;20469;-88
2021/11/27 11:05:33;;;;;;;0.73;0.73;;;6.90;99.90;;;;;;4947282;29;20516;-88
2021/11/27 11:08:03;;;;;;;1.03;0.80;;;6.80;99.90;;;;;;4941504;29;20481;-88
2021/11/27 11:10:33;;;;;;;1.63;0.83;;;6.80;99.90;;;;;;4943589;28;20475;-88
2021/11/27 11:13:05;;;;;;;0.97;0.83;;;6.80;99.90;;;;;;4946799;28;20881;-88
2021/11/27 11:15:37;;;;;;;1.13;0.80;;;6.70;99.90;;;;;;4943797;29;20469;-87
2021/11/27 11:18:12;;;;;;;0.70;0.70;;;6.80;99.90;;;;;;4944923;28;20924;-89
2021/11/27 11:20:44;;;;;;;1.70;0.90;;;6.60;99.90;;;;;;4926583;28;22185;-89
2021/11/27 11:23:16;;;;;;;0.80;0.80;;;6.60;99.90;;;;;;4920204;28;20832;-91
2021/11/27 11:26:00;;;;;;;2.13;1.00;;;6.60;99.90;;;;;;4947606;28;20468;-91
2021/11/27 11:28:32;;;;;;;1.50;1.00;;;6.60;99.90;;;;;;4943764;28;20483;-91
2021/11/27 11:31:06;;;;;;;2.47;0.98;;;6.70;99.90;;;;;;4949193;28;20956;-91
2021/11/27 11:33:38;;;;;;;1.13;0.90;;;6.90;99.90;;;;;;4945552;28;20229;-90
2021/11/27 11:36:12;;;;;;;0.97;0.90;;;6.80;99.90;;;;;;4949621;29;20446;-90
2021/11/27 11:38:46;;;;;;;2.20;0.80;;;6.80;99.90;;;;;;4949135;29;20858;-92
2021/11/27 11:41:16;;;;;;;1.00;0.87;;;6.80;99.90;;;;;;4950478;28;20543;-90
2021/11/27 11:43:46;;;;;;;1.40;1.00;;;6.70;99.90;;;;;;4946809;28;20476;-89
2021/11/27 11:46:16;;;;;;;1.10;0.70;;;6.80;99.90;;;;;;4946761;29;20471;-90
2021/11/27 11:48:50;;;;;;;3.27;0.90;;;6.90;99.90;;;;;;4939516;29;20586;-91
2021/11/27 11:51:32;;;;;;;0.70;0.70;;;7.00;99.90;;;;;;4948654;29;20832;-91
2021/11/27 11:54:02;;;;;;;0.70;0.70;;;6.90;99.90;;;;;;4946276;28;20464;-90
2021/11/27 11:56:32;;;;;;;1.13;1.00;;;7.00;99.90;;;;;;4940793;28;20473;-92
2021/11/27 11:59:21;;;;;;;1.37;0.90;;;6.90;99.90;;;;;;4934923;29;20481;-91
2021/11/27 12:02:13;;;;;;;1.10;0.90;;;7.10;99.90;;;;;;4944870;28;21013;-89
2021/11/27 12:05:14;;;;;;;0.97;0.80;;;7.30;99.90;;;;;;4924013;28;21285;-87
2021/11/27 12:07:51;;;;;;;1.60;0.90;;;6.90;99.90;;;;;;4941266;28;20543;-88
2021/11/27 12:10:43;;;;;;;1.07;0.70;;;7.00;99.90;;;;;;4939083;28;20456;-89
2021/11/27 12:13:28;;;;;;;0.73;0.70;;;7.00;99.90;;;;;;4942608;28;20457;-89
2021/11/27 12:16:12;;;;;;;1.00;0.80;;;6.90;99.90;;;;;;4939472;29;20452;-86
2021/11/27 12:19:06;;;;;;;0.60;0.60;;;6.90;99.90;;;;;;4934086;28;20488;-88
2021/11/27 12:22:05;;;;;;;1.43;0.77;;;6.90;99.90;;;;;;4938763;29;20534;-84
2021/11/27 12:24:36;;;;;;;1.60;0.90;;;7.00;99.90;;;;;;4915734;29;20992;-85
2021/11/27 12:27:10;;;;;;;1.10;0.80;;;7.00;99.90;;;;;;4941530;28;20365;-84
2021/11/27 12:30:02;;;;;;;0.73;0.73;;;7.00;99.90;;;;;;4940710;28;20503;-85
2021/11/27 12:32:38;;;;;;;2.10;0.73;;;6.90;99.90;;;;;;4941158;28;20462;-85
2021/11/27 12:35:41;;;;;;;1.37;0.80;;;7.10;99.90;;;;;;4927446;28;20974;-88
2021/11/27 12:38:31;;;;;;;0.73;0.63;;;7.20;99.90;;;;;;4944934;28;20480;-87
2021/11/27 12:41:00;;;;;;;0.97;0.73;;;7.00;99.90;;;;;;4944826;29;20562;-87
2021/11/27 12:43:29;;;;;;;0.50;0.50;;;7.10;99.90;;;;;;4941262;28;20496;-89
2021/11/27 12:45:58;;;;;;;0.50;0.50;;;7.10;99.90;;;;;;4945179;28;20492;-89
2021/11/27 12:48:38;;;;;;;1.15;0.60;;;6.70;99.90;;;;;;4946994;29;20460;-90
2021/11/27 12:51:21;;;;;;;0.60;0.60;;;6.50;99.90;;;;;;4949200;29;20219;-89
2021/11/27 12:54:25;;;;;;;1.80;0.60;;;6.40;99.90;;;;;;4947202;28;20468;-88
2021/11/27 12:57:15;;;;;;;0.80;0.70;;;6.40;99.90;;;;;;4941997;29;20465;-89
2021/11/27 12:59:45;;;;;;;0.70;0.70;;;6.30;99.90;;;;;;4934059;29;20455;-90
2021/11/27 13:02:15;;;;;;;0.67;0.63;;;6.50;99.90;;;;;;4944072;28;20214;-89
2021/11/27 13:04:45;;;;;;;0.63;0.63;;;6.20;1.00;;;;;;4949630;28;20484;-91
2021/11/27 13:07:14;;;;;;;0.40;0.40;;;6.00;99.90;;;;;;4948081;29;20456;-91
2021/11/27 13:10:09;;;;;;;0.93;0.50;;;5.90;99.90;;;;;;4947693;29;20484;-90
2021/11/27 13:12:59;;;;;;;0.50;0.50;;;5.70;99.90;;;;;;4943582;28;20452;-91
2021/11/27 13:15:28;;;;;;;0.50;0.50;;;5.50;99.90;;;;;;4941160;28;20494;-91
2021/11/27 13:18:11;;;;;;;0.67;0.67;;;5.60;99.90;;;;;;4942480;28;20920;-88
2021/11/27 13:20:46;;;;;;;0.80;0.73;;;5.70;99.90;;;;;;4946141;28;20977;-90